Time;durP1;ratioP1;P1;durP2;ratioP2;P2;SDS_P1;SDS_P2;PMS_P1;PMS_P2;Temp;Humidity;BMP_temperature;BMP_pressure;BME280_temperature;BME280_humidity;BME280_pressure;Samples;Min_cycle;Max_cycle;Signal;HPM_P1;HPM_P2
2024/03/29 00:00:36;;;;;;;0.75;0.45;;;17.80;55.20;;;;;;5052039;28;20321;-60
2024/03/29 00:03:01;;;;;;;2.38;0.70;;;17.70;55.20;;;;;;5051862;28;20204;-59
2024/03/29 00:05:27;;;;;;;0.95;0.70;;;17.70;55.20;;;;;;5050959;28;20293;-60
2024/03/29 00:07:52;;;;;;;0.55;0.50;;;17.70;55.30;;;;;;5051736;28;20167;-60
2024/03/29 00:10:18;;;;;;;1.13;0.52;;;17.70;55.10;;;;;;5051424;28;20215;-63
2024/03/29 00:12:43;;;;;;;2.08;1.00;;;17.60;55.20;;;;;;5051034;28;20171;-61
2024/03/29 00:15:09;;;;;;;1.25;0.70;;;17.60;55.20;;;;;;5051410;28;20207;-59
2024/03/29 00:17:34;;;;;;;0.90;0.60;;;17.60;55.20;;;;;;5051807;28;20179;-60
2024/03/29 00:20:00;;;;;;;1.27;1.05;;;17.60;55.20;;;;;;5050527;28;20189;-60
2024/03/29 00:22:25;;;;;;;1.00;0.50;;;17.50;55.20;;;;;;5051889;28;20179;-61
2024/03/29 00:24:51;;;;;;;0.95;0.70;;;17.60;55.20;;;;;;5055709;28;20365;-58
2024/03/29 00:27:16;;;;;;;1.83;0.50;;;17.60;55.20;;;;;;5054600;28;20278;-59
2024/03/29 00:29:43;;;;;;;0.70;0.70;;;17.50;55.20;;;;;;5055829;28;20258;-60
2024/03/29 00:32:09;;;;;;;1.58;0.77;;;17.50;55.20;;;;;;5055339;28;20228;-60
2024/03/29 00:34:34;;;;;;;1.30;0.70;;;17.50;55.20;;;;;;5054819;28;20595;-61
2024/03/29 00:37:00;;;;;;;0.43;0.40;;;17.50;55.30;;;;;;5055274;28;20652;-60
2024/03/29 00:39:25;;;;;;;0.60;0.45;;;17.50;55.30;;;;;;5055183;28;20240;-61
2024/03/29 00:41:51;;;;;;;2.03;0.63;;;17.40;55.30;;;;;;5054346;28;20272;-61
2024/03/29 00:44:16;;;;;;;0.95;0.63;;;17.40;55.20;;;;;;5055283;28;20249;-60
2024/03/29 00:46:42;;;;;;;2.25;0.95;;;17.40;55.30;;;;;;5055440;28;20172;-60
2024/03/29 00:49:07;;;;;;;1.20;0.60;;;17.40;55.30;;;;;;5054375;28;20171;-61
2024/03/29 00:51:33;;;;;;;1.67;0.70;;;17.40;55.30;;;;;;5055220;28;20179;-59
2024/03/29 00:53:58;;;;;;;0.52;0.50;;;17.40;55.30;;;;;;5054926;28;20579;-61
2024/03/29 00:56:24;;;;;;;1.23;0.60;;;17.40;55.30;;;;;;5054022;28;20178;-61
2024/03/29 00:58:49;;;;;;;1.23;0.52;;;17.40;55.30;;;;;;5055352;28;20213;-60
2024/03/29 01:01:15;;;;;;;1.25;0.60;;;17.40;55.40;;;;;;5054076;28;20263;-60
2024/03/29 01:03:40;;;;;;;0.40;0.40;;;17.30;55.30;;;;;;5055120;28;20182;-60
2024/03/29 01:06:06;;;;;;;1.48;0.82;;;17.30;56.10;;;;;;5054962;28;20215;-60
2024/03/29 01:08:31;;;;;;;0.93;0.45;;;17.30;55.40;;;;;;5053973;28;20270;-61
2024/03/29 01:10:57;;;;;;;0.82;0.60;;;17.30;55.40;;;;;;5054844;28;20179;-61
2024/03/29 01:13:23;;;;;;;1.40;0.60;;;17.30;55.50;;;;;;5054653;28;20207;-61
2024/03/29 01:15:48;;;;;;;1.52;0.68;;;17.30;55.50;;;;;;5054118;28;20658;-61
2024/03/29 01:18:14;;;;;;;0.65;0.47;;;17.30;55.50;;;;;;5054418;28;20258;-61
2024/03/29 01:20:39;;;;;;;1.85;0.60;;;17.20;55.40;;;;;;5054598;28;20270;-60
2024/03/29 01:23:05;;;;;;;0.88;0.57;;;17.20;55.40;;;;;;5053848;28;20265;-61
2024/03/29 01:25:31;;;;;;;1.25;0.60;;;17.20;55.40;;;;;;5054183;28;20266;-60
2024/03/29 01:27:56;;;;;;;1.33;0.70;;;17.20;55.50;;;;;;5054618;28;20171;-60
2024/03/29 01:30:22;;;;;;;0.63;0.57;;;17.20;55.50;;;;;;5053705;28;20182;-61
2024/03/29 01:32:48;;;;;;;1.33;0.77;;;17.20;55.50;;;;;;5054584;28;20182;-60
2024/03/29 01:35:13;;;;;;;0.75;0.57;;;17.20;55.50;;;;;;5053096;28;20594;-61
2024/03/29 01:37:39;;;;;;;1.75;0.50;;;17.20;55.50;;;;;;5053753;28;20622;-61
2024/03/29 01:40:05;;;;;;;1.23;0.60;;;17.20;55.50;;;;;;5053916;28;20645;-60
2024/03/29 01:42:30;;;;;;;0.68;0.40;;;17.20;55.50;;;;;;5054223;28;20252;-60
2024/03/29 01:44:56;;;;;;;0.85;0.55;;;17.20;55.60;;;;;;5053673;28;20556;-60
2024/03/29 01:47:22;;;;;;;0.77;0.50;;;17.10;55.50;;;;;;5053975;28;20633;-60
2024/03/29 01:49:47;;;;;;;0.60;0.60;;;17.10;55.50;;;;;;5054294;28;20647;-60
2024/03/29 01:52:15;;;;;;;0.95;0.50;;;17.10;55.50;;;;;;5051650;28;20626;-60
2024/03/29 01:54:40;;;;;;;0.55;0.40;;;17.10;55.60;;;;;;5052762;28;20291;-61
2024/03/29 01:57:06;;;;;;;0.60;0.50;;;17.10;55.50;;;;;;5053864;28;20592;-60
2024/03/29 01:59:31;;;;;;;1.02;0.75;;;17.10;56.20;;;;;;5051995;28;20171;-60
2024/03/29 02:01:57;;;;;;;1.00;0.55;;;17.00;55.60;;;;;;5053782;28;20700;-60
2024/03/29 02:04:22;;;;;;;1.42;0.60;;;17.10;55.60;;;;;;5052094;28;20175;-60
2024/03/29 02:06:48;;;;;;;0.90;0.55;;;17.10;55.60;;;;;;5053648;28;20184;-60
2024/03/29 02:09:13;;;;;;;0.70;0.50;;;17.10;55.70;;;;;;5052231;28;20625;-60
2024/03/29 02:11:39;;;;;;;0.38;0.30;;;17.00;55.60;;;;;;5052895;28;20168;-61
2024/03/29 02:14:06;;;;;;;1.38;0.40;;;17.00;55.70;;;;;;5053665;28;20202;-60
2024/03/29 02:16:31;;;;;;;0.80;0.45;;;17.00;56.20;;;;;;5053571;28;20167;-61
2024/03/29 02:18:57;;;;;;;0.85;0.60;;;17.00;55.60;;;;;;5052774;28;20262;-60
2024/03/29 02:21:23;;;;;;;0.80;0.52;;;17.00;55.60;;;;;;5053289;28;20175;-60
2024/03/29 02:23:57;;;;;;;0.57;0.40;;;17.00;55.70;;;;;;5053510;28;20168;-60
2024/03/29 02:26:24;;;;;;;0.77;0.45;;;17.00;55.80;;;;;;5052734;28;20265;-61
2024/03/29 02:28:50;;;;;;;1.30;0.50;;;17.00;55.70;;;;;;5053640;28;20224;-60
2024/03/29 02:31:15;;;;;;;2.55;0.60;;;17.00;55.80;;;;;;5053172;28;20179;-60
2024/03/29 02:33:41;;;;;;;0.82;0.65;;;17.00;55.90;;;;;;5052668;28;20218;-60
2024/03/29 02:36:07;;;;;;;0.52;0.43;;;17.00;55.90;;;;;;5053132;28;20537;-60
2024/03/29 02:38:32;;;;;;;0.77;0.70;;;17.00;55.70;;;;;;5052795;28;20629;-60
2024/03/29 02:40:58;;;;;;;0.70;0.55;;;16.90;55.70;;;;;;5052231;28;20223;-60
2024/03/29 02:43:23;;;;;;;0.73;0.60;;;16.90;55.60;;;;;;5053007;28;20187;-60
2024/03/29 02:45:49;;;;;;;0.60;0.50;;;17.00;55.70;;;;;;5052893;28;20171;-60
2024/03/29 02:48:14;;;;;;;0.93;0.60;;;16.90;55.70;;;;;;5051951;28;20167;-59
2024/03/29 02:50:40;;;;;;;0.70;0.50;;;16.90;55.80;;;;;;5053017;28;20167;-60
2024/03/29 02:53:05;;;;;;;2.42;0.40;;;16.90;55.70;;;;;;5052804;28;20171;-60
2024/03/29 02:55:31;;;;;;;1.20;0.60;;;16.90;55.70;;;;;;5051784;28;20233;-61
2024/03/29 02:57:56;;;;;;;3.05;0.57;;;16.90;55.70;;;;;;5052678;28;20266;-60
2024/03/29 03:00:22;;;;;;;1.08;0.60;;;16.90;55.70;;;;;;5052647;28;20175;-60
2024/03/29 03:02:47;;;;;;;1.23;0.40;;;16.90;55.70;;;;;;5052132;28;20171;-60
2024/03/29 03:05:13;;;;;;;1.05;0.68;;;16.90;55.70;;;;;;5052354;28;20186;-60
2024/03/29 03:13:07;;;;;;;0.98;0.55;;;16.90;55.60;;;;;;5052531;28;20645;-61
2024/03/29 03:15:32;;;;;;;0.40;0.40;;;16.80;55.60;;;;;;5051551;28;20215;-60
2024/03/29 03:17:58;;;;;;;1.85;0.50;;;16.90;55.70;;;;;;5052374;28;20193;-60
2024/03/29 03:20:27;;;;;;;0.80;0.35;;;16.80;55.70;;;;;;5052014;28;20650;-60
2024/03/29 03:22:53;;;;;;;0.63;0.57;;;16.80;55.60;;;;;;5051791;28;20182;-60
2024/03/29 03:25:18;;;;;;;0.77;0.50;;;16.80;55.60;;;;;;5052183;28;20178;-60
2024/03/29 03:27:44;;;;;;;0.50;0.50;;;16.80;55.60;;;;;;5052397;28;20178;-60
2024/03/29 03:30:10;;;;;;;0.65;0.55;;;16.80;55.70;;;;;;5051259;28;20193;-60
2024/03/29 03:32:36;;;;;;;1.38;0.70;;;16.80;55.70;;;;;;5052024;28;20175;-60
2024/03/29 03:35:01;;;;;;;0.60;0.40;;;16.80;55.70;;;;;;5052246;28;20203;-60
2024/03/29 03:37:27;;;;;;;1.05;0.60;;;16.80;55.70;;;;;;5051334;28;20232;-60
2024/03/29 03:39:52;;;;;;;1.17;0.50;;;16.80;55.60;;;;;;5051997;28;20642;-60
2024/03/29 03:42:18;;;;;;;1.80;0.60;;;16.80;55.70;;;;;;5051630;28;20762;-60
2024/03/29 03:44:43;;;;;;;0.80;0.47;;;16.80;55.70;;;;;;5051375;28;20183;-60
2024/03/29 03:47:09;;;;;;;1.23;0.82;;;16.80;55.70;;;;;;5051393;28;20229;-60
2024/03/29 03:49:34;;;;;;;0.60;0.50;;;16.80;55.70;;;;;;5051976;28;20179;-61
2024/03/29 03:52:00;;;;;;;0.52;0.50;;;16.70;55.70;;;;;;5051291;28;20175;-60
2024/03/29 03:54:25;;;;;;;0.40;0.40;;;16.70;55.70;;;;;;5051725;28;20214;-61
2024/03/29 03:56:51;;;;;;;0.85;0.60;;;16.70;55.70;;;;;;5051607;28;20174;-60
2024/03/29 03:59:16;;;;;;;0.80;0.60;;;16.70;55.70;;;;;;5050733;28;20175;-60
2024/03/29 04:01:42;;;;;;;0.98;0.70;;;16.70;55.70;;;;;;5051834;28;20220;-60
2024/03/29 04:04:07;;;;;;;0.57;0.52;;;16.70;55.80;;;;;;5050935;28;20237;-60
2024/03/29 04:06:33;;;;;;;0.60;0.50;;;16.70;55.70;;;;;;5051826;28;20226;-61
2024/03/29 04:08:58;;;;;;;0.52;0.40;;;16.70;55.80;;;;;;5051841;28;20579;-60
2024/03/29 04:11:24;;;;;;;1.25;0.50;;;16.70;55.80;;;;;;5050581;28;20638;-61
2024/03/29 04:13:49;;;;;;;1.50;0.70;;;16.70;55.70;;;;;;5051649;28;20207;-61
2024/03/29 04:16:15;;;;;;;0.47;0.47;;;16.70;55.70;;;;;;5051188;28;20186;-60
2024/03/29 04:18:40;;;;;;;0.60;0.40;;;16.70;55.80;;;;;;5050893;28;20175;-60
2024/03/29 04:21:06;;;;;;;1.33;0.55;;;16.70;55.80;;;;;;5051769;28;20171;-60
2024/03/29 04:23:31;;;;;;;0.30;0.30;;;16.70;55.80;;;;;;5051334;28;20506;-60
2024/03/29 04:25:58;;;;;;;0.65;0.43;;;16.70;55.80;;;;;;5050905;28;20199;-59
2024/03/29 04:28:23;;;;;;;0.75;0.60;;;16.70;55.90;;;;;;5051355;28;20254;-60
2024/03/29 04:30:56;;;;;;;1.45;0.85;;;16.60;55.80;;;;;;5051498;28;20665;-60
2024/03/29 04:33:22;;;;;;;1.08;0.40;;;16.60;55.80;;;;;;5050597;28;20270;-60
2024/03/29 04:36:01;;;;;;;1.55;0.60;;;16.60;55.90;;;;;;5051697;28;20297;-60
2024/03/29 04:38:27;;;;;;;0.55;0.40;;;16.60;55.90;;;;;;5051102;28;20186;-60
2024/03/29 04:40:54;;;;;;;0.50;0.50;;;16.60;55.90;;;;;;5050462;28;20263;-59
2024/03/29 04:43:22;;;;;;;0.88;0.50;;;16.60;55.90;;;;;;5051156;28;20179;-59
2024/03/29 04:45:47;;;;;;;0.40;0.40;;;16.60;55.90;;;;;;5051347;28;20536;-59
2024/03/29 04:48:13;;;;;;;1.05;0.40;;;16.60;55.90;;;;;;5050147;28;20183;-59
2024/03/29 04:50:39;;;;;;;0.70;0.32;;;16.60;56.00;;;;;;5051284;28;20254;-60
2024/03/29 04:53:04;;;;;;;1.52;0.50;;;16.60;56.00;;;;;;5051349;28;20190;-60
2024/03/29 04:55:30;;;;;;;2.35;0.65;;;16.60;56.10;;;;;;5050273;28;20210;-60
2024/03/29 04:57:55;;;;;;;0.65;0.40;;;16.60;56.00;;;;;;5051173;28;20172;-60
2024/03/29 05:00:21;;;;;;;1.50;0.60;;;16.60;56.10;;;;;;5050262;28;20183;-60
2024/03/29 05:02:46;;;;;;;0.60;0.55;;;16.60;56.10;;;;;;5051531;28;20179;-60
2024/03/29 05:05:12;;;;;;;1.52;0.60;;;16.60;56.10;;;;;;5050922;28;20194;-59
2024/03/29 05:07:37;;;;;;;1.23;0.50;;;16.60;56.20;;;;;;5050521;28;20629;-60
2024/03/29 05:10:06;;;;;;;0.65;0.47;;;16.60;56.20;;;;;;5052673;28;20175;-60
2024/03/29 05:12:32;;;;;;;0.68;0.50;;;16.60;56.20;;;;;;5054553;28;20179;-61
2024/03/29 05:14:57;;;;;;;1.02;0.40;;;16.60;56.20;;;;;;5053918;28;21066;-60
2024/03/29 05:17:26;;;;;;;0.50;0.47;;;16.60;56.20;;;;;;5054488;28;20178;-60
2024/03/29 05:19:52;;;;;;;0.75;0.60;;;16.50;56.20;;;;;;5054771;28;20261;-60
2024/03/29 05:22:17;;;;;;;0.52;0.43;;;16.60;56.30;;;;;;5053817;28;20230;-60
2024/03/29 05:24:43;;;;;;;0.77;0.50;;;16.60;56.40;;;;;;5054688;28;20175;-59
2024/03/29 05:27:09;;;;;;;0.50;0.30;;;16.60;56.40;;;;;;5054032;28;20221;-59
2024/03/29 05:29:34;;;;;;;0.73;0.70;;;16.50;56.30;;;;;;5053912;28;20245;-59
2024/03/29 05:32:00;;;;;;;1.10;0.60;;;16.50;56.40;;;;;;5054567;28;20173;-59
2024/03/29 05:34:25;;;;;;;0.95;0.50;;;16.50;56.40;;;;;;5054214;28;20222;-59
2024/03/29 05:36:50;;;;;;;0.20;0.20;;;16.60;56.50;;;;;;5053777;28;20175;-59
2024/03/29 05:39:18;;;;;;;0.88;0.65;;;16.50;56.50;;;;;;5053962;28;20646;-60
2024/03/29 05:41:44;;;;;;;0.80;0.60;;;16.50;56.50;;;;;;5054273;28;20223;-59
2024/03/29 05:44:09;;;;;;;0.57;0.40;;;16.50;56.50;;;;;;5053076;28;20198;-59
2024/03/29 05:46:35;;;;;;;1.42;0.60;;;16.50;56.50;;;;;;5054339;28;20179;-59
2024/03/29 05:49:00;;;;;;;1.35;0.43;;;16.50;56.60;;;;;;5054098;28;20175;-59
2024/03/29 05:51:26;;;;;;;1.33;0.55;;;16.50;56.60;;;;;;5053235;28;20179;-60
2024/03/29 05:53:51;;;;;;;1.48;0.60;;;16.50;56.60;;;;;;5054090;28;20214;-60
2024/03/29 05:56:17;;;;;;;0.55;0.40;;;16.50;56.70;;;;;;5053744;28;20175;-61
2024/03/29 05:58:42;;;;;;;0.43;0.43;;;16.50;56.70;;;;;;5053261;28;20175;-59
2024/03/29 06:01:08;;;;;;;1.38;0.70;;;16.50;56.70;;;;;;5053821;28;20183;-59
2024/03/29 06:03:34;;;;;;;0.68;0.40;;;16.50;56.70;;;;;;5053561;28;20528;-59
2024/03/29 06:05:59;;;;;;;0.65;0.65;;;16.50;56.70;;;;;;5054088;28;20175;-59
2024/03/29 06:08:26;;;;;;;1.33;0.55;;;16.50;57.40;;;;;;5053798;28;20324;-61
2024/03/29 06:10:52;;;;;;;0.85;0.60;;;16.50;56.80;;;;;;5053093;28;20167;-61
2024/03/29 06:13:29;;;;;;;0.70;0.63;;;16.50;56.80;;;;;;5053474;28;20549;-60
2024/03/29 06:18:39;;;;;;;0.93;0.60;;;16.50;56.80;;;;;;5053175;28;20225;-61
2024/03/29 06:21:05;;;;;;;0.52;0.38;;;16.40;56.80;;;;;;5053278;28;20171;-59
2024/03/29 06:23:30;;;;;;;0.45;0.45;;;16.40;56.80;;;;;;5053199;28;20207;-60
2024/03/29 06:25:56;;;;;;;1.40;0.57;;;16.40;56.90;;;;;;5053045;28;20214;-59
2024/03/29 06:28:21;;;;;;;2.00;0.70;;;16.40;56.90;;;;;;5053358;28;20210;-60
2024/03/29 06:30:47;;;;;;;0.70;0.40;;;16.40;56.90;;;;;;5053588;28;20207;-59
2024/03/29 06:33:12;;;;;;;1.90;0.70;;;16.40;56.90;;;;;;5052311;28;20171;-61
2024/03/29 06:35:38;;;;;;;1.45;0.73;;;16.40;56.90;;;;;;5053213;28;20222;-59
2024/03/29 06:38:04;;;;;;;1.08;0.45;;;16.40;56.90;;;;;;5053156;28;20194;-59
2024/03/29 06:40:29;;;;;;;0.50;0.50;;;16.40;56.90;;;;;;5052242;28;20227;-60
2024/03/29 06:42:58;;;;;;;0.95;0.60;;;16.40;57.00;;;;;;5053314;28;20216;-59
2024/03/29 06:45:23;;;;;;;1.88;0.57;;;16.40;57.00;;;;;;5052925;28;20182;-59
2024/03/29 06:47:49;;;;;;;0.60;0.40;;;16.40;57.00;;;;;;5052367;28;20179;-59
2024/03/29 06:50:14;;;;;;;0.80;0.57;;;16.40;57.00;;;;;;5052706;28;20181;-60
2024/03/29 06:52:40;;;;;;;0.50;0.50;;;16.40;57.00;;;;;;5052896;28;20201;-60
2024/03/29 06:55:05;;;;;;;0.70;0.52;;;16.40;57.00;;;;;;5052282;28;20207;-59
2024/03/29 06:57:31;;;;;;;0.68;0.50;;;16.40;57.10;;;;;;5052760;28;20175;-59
2024/03/29 06:59:58;;;;;;;1.02;0.40;;;16.40;57.10;;;;;;5052076;28;20232;-59
2024/03/29 07:02:23;;;;;;;0.50;0.43;;;16.40;57.10;;;;;;5052590;28;20186;-59
2024/03/29 07:04:49;;;;;;;0.98;0.47;;;16.40;57.10;;;;;;5052783;28;20175;-59
2024/03/29 07:07:14;;;;;;;1.55;0.77;;;16.40;57.10;;;;;;5051590;28;20175;-59
2024/03/29 07:09:40;;;;;;;1.35;0.50;;;16.30;57.10;;;;;;5052836;28;20233;-60
2024/03/29 07:12:06;;;;;;;1.30;0.60;;;16.40;57.10;;;;;;5052716;28;20218;-60
2024/03/29 07:14:33;;;;;;;1.85;0.40;;;16.30;57.10;;;;;;5051689;28;20670;-60
2024/03/29 07:17:19;;;;;;;1.25;0.70;;;16.30;57.20;;;;;;5052454;28;20186;-59
2024/03/29 07:19:44;;;;;;;2.05;0.57;;;16.30;57.20;;;;;;5050954;28;20248;-60
2024/03/29 07:22:10;;;;;;;0.50;0.45;;;16.30;57.20;;;;;;5051517;28;20705;-60
2024/03/29 07:24:35;;;;;;;0.30;0.30;;;16.30;57.90;;;;;;5052209;28;20671;-60
2024/03/29 07:27:01;;;;;;;0.65;0.47;;;16.30;57.30;;;;;;5052267;28;20224;-60
2024/03/29 07:29:27;;;;;;;0.50;0.50;;;16.40;57.30;;;;;;5051441;28;20209;-60
2024/03/29 07:31:52;;;;;;;0.60;0.40;;;16.30;57.30;;;;;;5051498;28;20171;-59
2024/03/29 07:34:18;;;;;;;0.40;0.40;;;16.30;57.30;;;;;;5051568;28;20218;-59
2024/03/29 07:36:44;;;;;;;0.90;0.70;;;16.30;57.30;;;;;;5051785;28;20179;-59
2024/03/29 07:39:09;;;;;;;0.60;0.50;;;16.30;57.30;;;;;;5051690;28;21010;-59
2024/03/29 07:41:35;;;;;;;0.63;0.40;;;16.30;57.30;;;;;;5051958;28;20279;-60
2024/03/29 07:44:03;;;;;;;1.08;0.70;;;16.30;57.30;;;;;;5051431;28;20205;-59
2024/03/29 07:46:30;;;;;;;1.05;0.40;;;16.30;57.30;;;;;;5051828;28;20198;-60
2024/03/29 07:48:56;;;;;;;1.25;0.70;;;16.30;57.30;;;;;;5051777;28;20213;-59
2024/03/29 07:51:22;;;;;;;0.50;0.50;;;16.30;57.30;;;;;;5050775;28;20210;-59
2024/03/29 07:53:47;;;;;;;1.13;0.50;;;16.30;57.30;;;;;;5050575;28;20673;-60
2024/03/29 07:56:13;;;;;;;0.50;0.43;;;16.30;57.30;;;;;;5050091;28;20179;-60
2024/03/29 07:58:38;;;;;;;1.10;0.50;;;16.30;57.40;;;;;;5051567;28;20182;-60
2024/03/29 08:01:04;;;;;;;1.17;0.68;;;16.30;57.40;;;;;;5051287;28;20171;-59
2024/03/29 08:03:32;;;;;;;0.85;0.50;;;16.30;57.40;;;;;;5050352;28;20208;-59
2024/03/29 08:06:04;;;;;;;2.17;0.98;;;16.30;57.40;;;;;;5050373;28;20171;-65
2024/03/29 08:08:33;;;;;;;3.47;0.88;;;16.30;57.70;;;;;;5051254;28;20171;-66
2024/03/29 08:10:59;;;;;;;1.63;0.60;;;16.30;57.60;;;;;;5051092;28;20179;-64
2024/03/29 08:13:25;;;;;;;0.57;0.57;;;16.30;57.60;;;;;;5051201;28;20220;-64
2024/03/29 08:15:57;;;;;;;0.65;0.60;;;16.30;57.60;;;;;;5051570;28;20175;-66
2024/03/29 08:18:23;;;;;;;1.45;0.65;;;16.20;57.70;;;;;;5050684;28;20265;-65
2024/03/29 08:20:48;;;;;;;2.33;0.50;;;16.30;57.70;;;;;;5051761;28;20308;-64
2024/03/29 08:23:14;;;;;;;3.15;0.77;;;16.30;57.80;;;;;;5051453;28;20262;-64
2024/03/29 08:25:39;;;;;;;1.17;0.75;;;16.30;57.70;;;;;;5051032;28;20266;-63
2024/03/29 08:28:05;;;;;;;1.70;0.75;;;16.30;57.60;;;;;;5051330;28;20261;-64
2024/03/29 08:30:34;;;;;;;1.15;0.60;;;16.20;57.60;;;;;;5051273;28;20175;-65
2024/03/29 08:33:02;;;;;;;4.53;0.93;;;16.20;57.60;;;;;;5050700;28;20182;-64
2024/03/29 08:35:29;;;;;;;0.95;0.70;;;16.30;57.80;;;;;;5051314;28;20218;-65
2024/03/29 08:37:54;;;;;;;2.38;0.82;;;16.20;57.70;;;;;;5051600;28;20539;-65
2024/03/29 08:40:20;;;;;;;2.05;0.85;;;16.30;57.70;;;;;;5050335;28;20669;-65
2024/03/29 08:42:45;;;;;;;1.40;0.52;;;16.20;57.70;;;;;;5051575;28;20681;-64
2024/03/29 08:45:12;;;;;;;1.17;0.60;;;16.20;57.60;;;;;;5054513;28;20179;-64
2024/03/29 08:47:38;;;;;;;3.88;0.90;;;16.30;57.70;;;;;;5054784;28;20254;-64
2024/03/29 08:50:04;;;;;;;3.08;0.77;;;16.30;57.70;;;;;;5055353;28;20262;-63
2024/03/29 08:52:30;;;;;;;4.18;1.20;;;16.30;57.70;;;;;;5054349;28;20213;-65
2024/03/29 08:54:56;;;;;;;4.55;1.27;;;16.30;57.70;;;;;;5055087;28;20609;-64
2024/03/29 08:57:21;;;;;;;1.88;0.98;;;16.30;57.80;;;;;;5054820;28;20226;-64
2024/03/29 08:59:47;;;;;;;2.58;0.98;;;16.30;57.80;;;;;;5054361;28;20265;-64
2024/03/29 09:02:12;;;;;;;5.20;1.13;;;16.30;57.80;;;;;;5054919;28;20175;-63
2024/03/29 09:04:38;;;;;;;1.35;0.80;;;16.30;57.70;;;;;;5055252;28;20171;-63
2024/03/29 09:07:03;;;;;;;5.15;1.00;;;16.40;57.60;;;;;;5054369;28;20508;-65
2024/03/29 09:09:32;;;;;;;3.20;1.02;;;16.40;57.60;;;;;;5054793;28;20179;-66
2024/03/29 09:11:58;;;;;;;1.83;0.90;;;16.40;57.70;;;;;;5054661;28;20634;-65
2024/03/29 09:14:24;;;;;;;5.10;1.10;;;16.40;57.60;;;;;;5053814;28;20211;-65
2024/03/29 09:16:50;;;;;;;4.88;1.30;;;16.40;57.70;;;;;;5055068;28;20172;-65
2024/03/29 09:19:15;;;;;;;3.53;1.27;;;16.40;57.70;;;;;;5054471;28;20179;-64
2024/03/29 09:21:41;;;;;;;4.13;1.27;;;16.40;57.70;;;;;;5054278;28;20217;-65
2024/03/29 09:24:06;;;;;;;3.28;1.13;;;16.50;57.80;;;;;;5054732;28;20634;-65
2024/03/29 09:26:35;;;;;;;3.33;1.08;;;16.50;57.80;;;;;;5054266;28;20170;-65
2024/03/29 09:29:01;;;;;;;2.33;1.00;;;16.50;57.80;;;;;;5052584;28;20610;-64
2024/03/29 09:31:27;;;;;;;2.75;1.00;;;16.50;57.80;;;;;;5052230;28;20182;-65
2024/03/29 09:33:53;;;;;;;4.25;1.25;;;16.50;57.80;;;;;;5053005;28;20199;-67
2024/03/29 09:36:23;;;;;;;4.40;1.17;;;16.60;57.80;;;;;;5053020;28;20552;-66
2024/03/29 09:38:51;;;;;;;3.17;1.40;;;16.60;57.80;;;;;;5054335;28;20229;-63
2024/03/29 09:41:21;;;;;;;2.95;1.35;;;16.60;57.60;;;;;;5053589;28;20284;-63
2024/03/29 09:43:47;;;;;;;1.95;1.08;;;16.70;57.70;;;;;;5053446;28;20187;-63
2024/03/29 09:46:13;;;;;;;3.80;1.30;;;16.80;57.70;;;;;;5053580;28;20175;-62
2024/03/29 09:48:42;;;;;;;3.75;1.10;;;16.90;57.50;;;;;;5053573;28;20241;-62
2024/03/29 09:51:08;;;;;;;3.05;1.00;;;16.80;57.50;;;;;;5053965;28;20175;-62
2024/03/29 09:53:35;;;;;;;2.30;1.42;;;16.90;58.10;;;;;;5054061;28;20266;-62
2024/03/29 09:56:05;;;;;;;3.88;1.20;;;17.00;57.40;;;;;;5052336;28;20650;-63
2024/03/29 09:58:31;;;;;;;2.53;1.20;;;17.00;57.40;;;;;;5053694;28;20546;-63
2024/03/29 10:00:57;;;;;;;3.25;1.40;;;17.00;57.20;;;;;;5054058;28;20248;-63
2024/03/29 10:03:30;;;;;;;2.72;1.58;;;17.00;57.30;;;;;;5051892;28;20168;-63
2024/03/29 10:05:59;;;;;;;2.25;1.10;;;17.00;57.50;;;;;;5052656;28;20182;-63
2024/03/29 10:08:26;;;;;;;2.55;1.10;;;16.90;57.60;;;;;;5053485;28;20221;-63
2024/03/29 10:10:52;;;;;;;1.80;1.20;;;16.90;57.60;;;;;;5052069;28;20183;-63
2024/03/29 10:13:18;;;;;;;4.28;1.42;;;16.90;57.80;;;;;;5052415;28;20596;-63
2024/03/29 10:15:49;;;;;;;1.58;0.93;;;16.90;57.90;;;;;;5053676;28;20691;-63
2024/03/29 10:18:15;;;;;;;4.88;1.50;;;16.80;57.90;;;;;;5052529;28;20225;-63
2024/03/29 10:20:40;;;;;;;1.85;1.00;;;16.90;58.10;;;;;;5053555;28;20179;-62
2024/03/29 10:23:07;;;;;;;2.78;1.17;;;16.80;58.10;;;;;;5053467;28;20186;-62
2024/03/29 10:25:35;;;;;;;1.50;1.02;;;16.90;58.20;;;;;;5052699;28;20630;-62
2024/03/29 10:28:02;;;;;;;2.85;1.27;;;16.90;58.20;;;;;;5053327;28;20591;-62
2024/03/29 10:30:28;;;;;;;9.00;1.33;;;16.90;58.20;;;;;;5053115;28;20187;-64
2024/03/29 10:32:55;;;;;;;2.92;1.08;;;16.90;58.40;;;;;;5052556;28;20540;-65
2024/03/29 10:35:21;;;;;;;6.40;1.20;;;17.00;58.30;;;;;;5052937;28;20711;-65
2024/03/29 10:37:46;;;;;;;1.90;1.15;;;17.00;58.30;;;;;;5053027;28;20179;-65
2024/03/29 10:40:16;;;;;;;2.55;1.30;;;17.00;58.20;;;;;;5050675;28;20175;-65
2024/03/29 10:42:44;;;;;;;3.13;1.30;;;17.00;58.10;;;;;;5053138;28;20563;-64
2024/03/29 10:45:09;;;;;;;5.18;1.23;;;17.00;58.10;;;;;;5050768;28;21028;-64
2024/03/29 10:47:35;;;;;;;2.13;0.90;;;17.00;58.10;;;;;;5053181;28;20171;-64
2024/03/29 10:50:00;;;;;;;5.80;1.00;;;17.00;58.20;;;;;;5051606;28;20652;-64
2024/03/29 10:52:26;;;;;;;2.13;0.88;;;17.10;58.20;;;;;;5051957;28;20261;-63
2024/03/29 10:54:52;;;;;;;2.72;1.52;;;17.20;58.10;;;;;;5052891;28;20211;-63
2024/03/29 10:57:25;;;;;;;2.97;1.02;;;17.20;57.90;;;;;;5052503;28;20266;-63
2024/03/29 11:00:14;;;;;;;3.60;1.20;;;17.20;58.00;;;;;;5052148;28;20187;-62
2024/03/29 11:02:42;;;;;;;3.08;1.20;;;17.30;58.10;;;;;;5052825;28;20194;-62
2024/03/29 11:05:09;;;;;;;2.55;0.90;;;17.30;58.10;;;;;;5052558;28;20182;-62
2024/03/29 11:07:37;;;;;;;2.88;1.17;;;17.20;58.00;;;;;;5052105;28;20190;-64
2024/03/29 11:10:04;;;;;;;1.88;0.85;;;17.30;58.00;;;;;;5051024;28;20171;-64
2024/03/29 11:12:30;;;;;;;1.92;0.98;;;17.30;58.00;;;;;;5049384;28;20181;-64
2024/03/29 11:15:06;;;;;;;2.38;1.23;;;17.30;58.00;;;;;;5050752;28;20257;-63
2024/03/29 11:17:31;;;;;;;2.97;1.10;;;17.30;58.00;;;;;;5050265;28;20181;-63
2024/03/29 11:19:59;;;;;;;1.85;0.75;;;17.30;58.00;;;;;;5052163;28;20175;-63
2024/03/29 11:22:24;;;;;;;3.78;0.98;;;17.30;58.00;;;;;;5050091;28;20201;-63
2024/03/29 11:24:53;;;;;;;1.05;0.93;;;17.30;57.90;;;;;;5052076;28;20609;-62
2024/03/29 11:27:25;;;;;;;1.38;1.10;;;17.40;57.80;;;;;;5051313;28;20167;-62
2024/03/29 11:29:52;;;;;;;2.08;1.10;;;17.40;57.80;;;;;;5052360;28;20211;-63
2024/03/29 11:32:38;;;;;;;1.45;1.00;;;17.40;57.80;;;;;;5051959;28;20564;-63
2024/03/29 11:35:04;;;;;;;1.27;0.95;;;17.30;57.80;;;;;;5051536;28;20222;-63
2024/03/29 11:37:31;;;;;;;1.45;0.82;;;17.30;57.90;;;;;;5052041;28;20266;-64
2024/03/29 11:39:59;;;;;;;1.98;0.98;;;17.30;58.00;;;;;;5052063;28;20187;-63
2024/03/29 11:42:44;;;;;;;1.15;0.88;;;17.30;58.00;;;;;;5051182;28;20646;-63
2024/03/29 11:45:11;;;;;;;1.02;0.82;;;17.30;58.00;;;;;;5051832;28;20178;-62
2024/03/29 11:47:36;;;;;;;1.63;1.08;;;17.20;58.60;;;;;;5051993;28;20645;-63
2024/03/29 11:50:02;;;;;;;1.67;0.80;;;17.30;58.00;;;;;;5050071;28;20266;-63
2024/03/29 11:52:28;;;;;;;0.95;0.85;;;17.30;58.00;;;;;;5050428;28;20655;-63
2024/03/29 11:54:54;;;;;;;1.83;0.70;;;17.30;58.00;;;;;;5051693;28;20337;-63
2024/03/29 11:57:20;;;;;;;1.30;0.82;;;17.20;58.00;;;;;;5050860;28;20262;-64
2024/03/29 11:59:45;;;;;;;2.45;0.82;;;17.20;58.00;;;;;;5052020;28;20183;-62
2024/03/29 12:02:12;;;;;;;0.90;0.80;;;17.20;58.00;;;;;;5051609;28;20164;-63
2024/03/29 12:04:42;;;;;;;1.45;0.80;;;17.20;58.00;;;;;;5050402;28;20193;-63
2024/03/29 12:07:08;;;;;;;2.22;0.82;;;17.20;58.10;;;;;;5051573;28;20278;-63
2024/03/29 12:09:33;;;;;;;1.35;0.80;;;17.10;58.10;;;;;;5049845;28;20289;-64
2024/03/29 12:12:05;;;;;;;1.85;1.10;;;17.20;58.10;;;;;;5051911;28;20183;-64
2024/03/29 12:14:34;;;;;;;1.05;0.80;;;17.20;58.10;;;;;;5051687;28;20253;-64
2024/03/29 12:17:00;;;;;;;1.00;0.90;;;17.20;58.00;;;;;;5050913;28;20273;-62
2024/03/29 12:19:27;;;;;;;2.10;0.73;;;17.20;57.90;;;;;;5056376;28;20265;-63
2024/03/29 12:21:53;;;;;;;1.65;1.08;;;17.30;57.70;;;;;;5058295;28;20182;-62
2024/03/29 12:24:21;;;;;;;2.55;0.88;;;17.30;57.70;;;;;;5057740;28;20183;-64
2024/03/29 12:26:49;;;;;;;1.08;0.80;;;17.30;57.60;;;;;;5058428;28;20374;-62
2024/03/29 12:29:14;;;;;;;2.03;0.98;;;17.40;57.60;;;;;;5057888;28;20233;-63
2024/03/29 12:31:40;;;;;;;0.77;0.70;;;17.40;57.50;;;;;;5055628;28;20179;-63
2024/03/29 12:34:07;;;;;;;1.10;0.70;;;17.40;57.40;;;;;;5058097;28;20272;-63
2024/03/29 12:36:33;;;;;;;0.85;0.68;;;17.50;57.30;;;;;;5056766;28;20622;-64
2024/03/29 12:39:02;;;;;;;1.08;0.70;;;17.60;57.30;;;;;;5057394;28;20641;-63
2024/03/29 12:41:29;;;;;;;0.70;0.70;;;17.60;57.30;;;;;;5057756;28;20238;-64
2024/03/29 12:43:54;;;;;;;2.53;1.10;;;17.70;57.30;;;;;;5058141;28;20193;-64
2024/03/29 12:46:20;;;;;;;1.35;0.77;;;17.70;57.20;;;;;;5055777;28;20167;-63
2024/03/29 12:48:45;;;;;;;1.50;0.45;;;17.70;57.10;;;;;;5058090;28;20184;-63
2024/03/29 12:51:12;;;;;;;1.08;0.88;;;17.60;57.10;;;;;;5057521;28;20171;-63